sensor_id;sensor_type;location;lat;lon;timestamp;P1;durP1;ratioP1;P2;durP2;ratioP2
79493;SDS011;68951;53.130;18.104;2023-04-16T00:02:01;5.50;;;3.30;;
79493;SDS011;68951;53.130;18.104;2023-04-16T00:04:28;6.30;;;3.40;;
79493;SDS011;68951;53.130;18.104;2023-04-16T00:06:55;5.90;;;3.60;;
79493;SDS011;68951;53.130;18.104;2023-04-16T00:09:21;6.80;;;3.30;;
79493;SDS011;68951;53.130;18.104;2023-04-16T00:11:48;6.40;;;3.90;;
79493;SDS011;68951;53.130;18.104;2023-04-16T00:14:15;5.90;;;3.20;;
79493;SDS011;68951;53.130;18.104;2023-04-16T00:16:42;5.60;;;3.40;;
79493;SDS011;68951;53.130;18.104;2023-04-16T00:19:09;5.90;;;3.60;;
79493;SDS011;68951;53.130;18.104;2023-04-16T00:21:35;6.20;;;3.30;;
79493;SDS011;68951;53.130;18.104;2023-04-16T00:24:02;5.50;;;2.80;;
79493;SDS011;68951;53.130;18.104;2023-04-16T00:26:29;5.40;;;2.70;;
79493;SDS011;68951;53.130;18.104;2023-04-16T00:28:56;6.20;;;3.20;;
79493;SDS011;68951;53.130;18.104;2023-04-16T00:31:28;7.60;;;3.30;;
79493;SDS011;68951;53.130;18.104;2023-04-16T00:33:56;6.40;;;3.50;;
79493;SDS011;68951;53.130;18.104;2023-04-16T00:36:24;6.00;;;3.20;;
79493;SDS011;68951;53.130;18.104;2023-04-16T00:38:53;5.70;;;2.90;;
79493;SDS011;68951;53.130;18.104;2023-04-16T00:41:21;5.10;;;2.70;;
79493;SDS011;68951;53.130;18.104;2023-04-16T00:43:49;5.70;;;2.40;;
79493;SDS011;68951;53.130;18.104;2023-04-16T00:46:18;5.90;;;3.60;;
79493;SDS011;68951;53.130;18.104;2023-04-16T00:48:47;7.40;;;3.80;;
79493;SDS011;68951;53.130;18.104;2023-04-16T00:51:16;6.70;;;3.60;;
79493;SDS011;68951;53.130;18.104;2023-04-16T00:53:44;5.70;;;3.30;;
79493;SDS011;68951;53.130;18.104;2023-04-16T00:56:12;6.10;;;3.40;;
79493;SDS011;68951;53.130;18.104;2023-04-16T00:58:39;6.10;;;2.90;;
79493;SDS011;68951;53.130;18.104;2023-04-16T01:01:06;6.10;;;2.60;;
79493;SDS011;68951;53.130;18.104;2023-04-16T01:03:38;6.90;;;3.90;;
79493;SDS011;68951;53.130;18.104;2023-04-16T01:06:12;6.50;;;3.50;;
79493;SDS011;68951;53.130;18.104;2023-04-16T01:08:39;7.90;;;3.40;;
79493;SDS011;68951;53.130;18.104;2023-04-16T01:11:06;7.10;;;3.30;;
79493;SDS011;68951;53.130;18.104;2023-04-16T01:13:34;6.50;;;3.20;;
79493;SDS011;68951;53.130;18.104;2023-04-16T01:16:05;5.60;;;2.90;;
79493;SDS011;68951;53.130;18.104;2023-04-16T01:18:34;7.00;;;3.00;;
79493;SDS011;68951;53.130;18.104;2023-04-16T01:21:01;6.80;;;4.10;;
79493;SDS011;68951;53.130;18.104;2023-04-16T01:23:28;6.90;;;3.60;;
79493;SDS011;68951;53.130;18.104;2023-04-16T01:25:55;6.70;;;4.10;;
79493;SDS011;68951;53.130;18.104;2023-04-16T01:28:22;6.30;;;3.60;;
79493;SDS011;68951;53.130;18.104;2023-04-16T01:30:49;7.00;;;4.00;;
79493;SDS011;68951;53.130;18.104;2023-04-16T01:33:17;6.90;;;3.60;;
79493;SDS011;68951;53.130;18.104;2023-04-16T01:35:44;6.90;;;4.20;;
79493;SDS011;68951;53.130;18.104;2023-04-16T01:38:11;7.00;;;4.30;;
79493;SDS011;68951;53.130;18.104;2023-04-16T01:40:38;7.80;;;4.30;;
79493;SDS011;68951;53.130;18.104;2023-04-16T01:43:05;7.30;;;4.10;;
79493;SDS011;68951;53.130;18.104;2023-04-16T01:45:33;7.50;;;4.30;;
79493;SDS011;68951;53.130;18.104;2023-04-16T01:48:00;6.10;;;3.80;;
79493;SDS011;68951;53.130;18.104;2023-04-16T01:50:28;8.50;;;4.20;;
79493;SDS011;68951;53.130;18.104;2023-04-16T01:52:56;7.50;;;3.80;;
79493;SDS011;68951;53.130;18.104;2023-04-16T01:55:23;8.20;;;4.60;;
79493;SDS011;68951;53.130;18.104;2023-04-16T01:57:50;7.00;;;4.20;;
79493;SDS011;68951;53.130;18.104;2023-04-16T02:00:17;6.80;;;3.90;;
79493;SDS011;68951;53.130;18.104;2023-04-16T02:02:44;6.30;;;3.80;;
79493;SDS011;68951;53.130;18.104;2023-04-16T02:05:11;6.90;;;3.90;;
79493;SDS011;68951;53.130;18.104;2023-04-16T02:07:38;6.40;;;3.50;;
79493;SDS011;68951;53.130;18.104;2023-04-16T02:10:05;7.40;;;3.90;;
79493;SDS011;68951;53.130;18.104;2023-04-16T02:12:34;6.60;;;3.70;;
79493;SDS011;68951;53.130;18.104;2023-04-16T02:15:01;8.30;;;4.70;;
79493;SDS011;68951;53.130;18.104;2023-04-16T02:17:28;6.90;;;3.90;;
79493;SDS011;68951;53.130;18.104;2023-04-16T02:19:55;7.00;;;4.60;;
79493;SDS011;68951;53.130;18.104;2023-04-16T02:22:22;7.20;;;4.50;;
79493;SDS011;68951;53.130;18.104;2023-04-16T02:24:49;8.10;;;4.70;;
79493;SDS011;68951;53.130;18.104;2023-04-16T02:27:16;7.70;;;4.40;;
79493;SDS011;68951;53.130;18.104;2023-04-16T02:29:43;7.70;;;4.30;;
79493;SDS011;68951;53.130;18.104;2023-04-16T02:32:10;7.10;;;4.00;;
79493;SDS011;68951;53.130;18.104;2023-04-16T02:34:36;7.20;;;4.50;;
79493;SDS011;68951;53.130;18.104;2023-04-16T02:37:05;9.00;;;5.70;;
79493;SDS011;68951;53.130;18.104;2023-04-16T02:39:32;8.10;;;4.80;;
79493;SDS011;68951;53.130;18.104;2023-04-16T02:41:59;7.40;;;4.00;;
79493;SDS011;68951;53.130;18.104;2023-04-16T02:44:27;7.80;;;4.80;;
79493;SDS011;68951;53.130;18.104;2023-04-16T02:46:54;8.50;;;3.30;;
79493;SDS011;68951;53.130;18.104;2023-04-16T02:49:21;7.40;;;4.30;;
79493;SDS011;68951;53.130;18.104;2023-04-16T02:51:48;7.00;;;4.10;;
79493;SDS011;68951;53.130;18.104;2023-04-16T02:54:15;10.20;;;4.30;;
79493;SDS011;68951;53.130;18.104;2023-04-16T02:56:41;7.50;;;4.30;;
79493;SDS011;68951;53.130;18.104;2023-04-16T02:59:08;7.20;;;4.30;;
79493;SDS011;68951;53.130;18.104;2023-04-16T03:01:35;6.60;;;4.20;;
79493;SDS011;68951;53.130;18.104;2023-04-16T03:04:02;6.90;;;4.40;;
79493;SDS011;68951;53.130;18.104;2023-04-16T03:06:29;10.10;;;6.20;;
79493;SDS011;68951;53.130;18.104;2023-04-16T03:08:56;10.60;;;6.40;;
79493;SDS011;68951;53.130;18.104;2023-04-16T03:11:23;8.90;;;5.70;;
79493;SDS011;68951;53.130;18.104;2023-04-16T03:13:50;8.60;;;5.10;;
79493;SDS011;68951;53.130;18.104;2023-04-16T03:16:17;7.90;;;5.00;;
79493;SDS011;68951;53.130;18.104;2023-04-16T03:18:43;6.70;;;3.90;;
79493;SDS011;68951;53.130;18.104;2023-04-16T03:21:10;7.10;;;3.70;;
79493;SDS011;68951;53.130;18.104;2023-04-16T03:23:37;7.10;;;4.00;;
79493;SDS011;68951;53.130;18.104;2023-04-16T03:26:04;6.00;;;3.30;;
79493;SDS011;68951;53.130;18.104;2023-04-16T03:28:31;6.80;;;3.70;;
79493;SDS011;68951;53.130;18.104;2023-04-16T03:30:58;7.60;;;4.70;;
79493;SDS011;68951;53.130;18.104;2023-04-16T03:33:25;7.50;;;4.40;;
79493;SDS011;68951;53.130;18.104;2023-04-16T03:35:56;6.60;;;4.00;;
79493;SDS011;68951;53.130;18.104;2023-04-16T03:38:23;7.10;;;4.00;;
79493;SDS011;68951;53.130;18.104;2023-04-16T03:40:53;7.10;;;4.10;;
79493;SDS011;68951;53.130;18.104;2023-04-16T03:43:20;6.90;;;4.00;;
79493;SDS011;68951;53.130;18.104;2023-04-16T03:45:47;8.40;;;4.50;;
79493;SDS011;68951;53.130;18.104;2023-04-16T03:48:14;7.40;;;4.00;;
79493;SDS011;68951;53.130;18.104;2023-04-16T03:50:44;7.90;;;5.00;;
79493;SDS011;68951;53.130;18.104;2023-04-16T03:53:13;8.30;;;4.60;;
79493;SDS011;68951;53.130;18.104;2023-04-16T03:55:40;15.50;;;8.10;;
79493;SDS011;68951;53.130;18.104;2023-04-16T03:58:08;11.00;;;6.60;;
79493;SDS011;68951;53.130;18.104;2023-04-16T04:00:35;11.70;;;7.10;;
79493;SDS011;68951;53.130;18.104;2023-04-16T04:03:02;8.40;;;4.30;;
79493;SDS011;68951;53.130;18.104;2023-04-16T04:05:28;7.20;;;4.00;;
79493;SDS011;68951;53.130;18.104;2023-04-16T04:07:55;8.30;;;5.00;;
79493;SDS011;68951;53.130;18.104;2023-04-16T04:10:22;11.20;;;5.30;;
79493;SDS011;68951;53.130;18.104;2023-04-16T04:12:49;9.90;;;5.50;;
79493;SDS011;68951;53.130;18.104;2023-04-16T04:15:16;8.40;;;5.20;;
79493;SDS011;68951;53.130;18.104;2023-04-16T04:17:42;7.40;;;4.10;;
79493;SDS011;68951;53.130;18.104;2023-04-16T04:20:10;6.40;;;3.70;;
79493;SDS011;68951;53.130;18.104;2023-04-16T04:22:37;6.90;;;4.00;;
79493;SDS011;68951;53.130;18.104;2023-04-16T04:25:04;7.00;;;3.00;;
79493;SDS011;68951;53.130;18.104;2023-04-16T04:27:31;7.80;;;5.10;;
79493;SDS011;68951;53.130;18.104;2023-04-16T04:29:58;9.90;;;5.50;;
79493;SDS011;68951;53.130;18.104;2023-04-16T04:32:25;10.40;;;5.20;;
79493;SDS011;68951;53.130;18.104;2023-04-16T04:34:52;11.30;;;6.30;;
79493;SDS011;68951;53.130;18.104;2023-04-16T04:37:19;9.80;;;5.50;;
79493;SDS011;68951;53.130;18.104;2023-04-16T04:39:46;7.30;;;4.10;;
79493;SDS011;68951;53.130;18.104;2023-04-16T04:42:16;9.50;;;4.80;;
79493;SDS011;68951;53.130;18.104;2023-04-16T04:44:44;8.10;;;4.30;;
79493;SDS011;68951;53.130;18.104;2023-04-16T04:47:11;8.50;;;5.20;;
79493;SDS011;68951;53.130;18.104;2023-04-16T04:49:39;8.10;;;4.80;;
79493;SDS011;68951;53.130;18.104;2023-04-16T04:52:07;7.50;;;4.50;;
79493;SDS011;68951;53.130;18.104;2023-04-16T04:54:34;9.20;;;5.50;;
79493;SDS011;68951;53.130;18.104;2023-04-16T04:57:01;8.00;;;4.60;;
79493;SDS011;68951;53.130;18.104;2023-04-16T04:59:28;7.90;;;4.20;;
79493;SDS011;68951;53.130;18.104;2023-04-16T05:01:54;7.00;;;3.90;;
79493;SDS011;68951;53.130;18.104;2023-04-16T05:04:21;7.50;;;4.70;;
79493;SDS011;68951;53.130;18.104;2023-04-16T05:06:48;6.80;;;4.30;;
79493;SDS011;68951;53.130;18.104;2023-04-16T05:09:15;7.00;;;4.70;;
79493;SDS011;68951;53.130;18.104;2023-04-16T05:11:41;7.30;;;5.00;;
79493;SDS011;68951;53.130;18.104;2023-04-16T05:14:08;7.00;;;4.00;;
79493;SDS011;68951;53.130;18.104;2023-04-16T05:16:35;6.60;;;3.80;;
79493;SDS011;68951;53.130;18.104;2023-04-16T05:19:03;7.30;;;4.50;;
79493;SDS011;68951;53.130;18.104;2023-04-16T05:21:30;9.20;;;5.70;;
79493;SDS011;68951;53.130;18.104;2023-04-16T05:23:57;8.20;;;4.10;;
79493;SDS011;68951;53.130;18.104;2023-04-16T05:26:24;7.10;;;4.10;;
79493;SDS011;68951;53.130;18.104;2023-04-16T05:28:51;7.40;;;4.20;;
79493;SDS011;68951;53.130;18.104;2023-04-16T05:31:18;7.50;;;4.50;;
79493;SDS011;68951;53.130;18.104;2023-04-16T05:33:44;8.60;;;3.80;;
79493;SDS011;68951;53.130;18.104;2023-04-16T05:36:11;7.20;;;3.60;;
79493;SDS011;68951;53.130;18.104;2023-04-16T05:38:38;8.80;;;5.40;;
79493;SDS011;68951;53.130;18.104;2023-04-16T05:41:05;8.20;;;5.00;;
79493;SDS011;68951;53.130;18.104;2023-04-16T05:43:31;8.10;;;4.50;;
79493;SDS011;68951;53.130;18.104;2023-04-16T05:45:58;7.50;;;4.60;;
79493;SDS011;68951;53.130;18.104;2023-04-16T05:48:25;8.60;;;4.50;;
79493;SDS011;68951;53.130;18.104;2023-04-16T05:50:52;7.10;;;4.10;;
79493;SDS011;68951;53.130;18.104;2023-04-16T05:53:19;8.10;;;5.40;;
79493;SDS011;68951;53.130;18.104;2023-04-16T05:55:46;7.40;;;4.00;;
79493;SDS011;68951;53.130;18.104;2023-04-16T05:58:12;7.90;;;4.60;;
79493;SDS011;68951;53.130;18.104;2023-04-16T06:00:39;14.00;;;10.90;;
79493;SDS011;68951;53.130;18.104;2023-04-16T06:03:06;14.60;;;10.20;;
79493;SDS011;68951;53.130;18.104;2023-04-16T06:05:33;8.80;;;5.80;;
79493;SDS011;68951;53.130;18.104;2023-04-16T06:08:00;11.80;;;6.60;;
79493;SDS011;68951;53.130;18.104;2023-04-16T06:10:27;10.70;;;5.70;;
79493;SDS011;68951;53.130;18.104;2023-04-16T06:12:54;12.30;;;6.10;;
79493;SDS011;68951;53.130;18.104;2023-04-16T06:15:21;8.90;;;5.40;;
79493;SDS011;68951;53.130;18.104;2023-04-16T06:17:48;11.60;;;6.40;;
79493;SDS011;68951;53.130;18.104;2023-04-16T06:20:16;8.70;;;5.20;;
79493;SDS011;68951;53.130;18.104;2023-04-16T06:22:42;9.40;;;5.60;;
79493;SDS011;68951;53.130;18.104;2023-04-16T06:25:09;10.70;;;5.90;;
79493;SDS011;68951;53.130;18.104;2023-04-16T06:27:36;11.20;;;5.20;;
79493;SDS011;68951;53.130;18.104;2023-04-16T06:30:03;9.90;;;4.90;;
79493;SDS011;68951;53.130;18.104;2023-04-16T06:32:31;10.00;;;5.40;;
79493;SDS011;68951;53.130;18.104;2023-04-16T06:34:58;8.50;;;4.90;;
79493;SDS011;68951;53.130;18.104;2023-04-16T06:37:25;9.30;;;5.10;;
79493;SDS011;68951;53.130;18.104;2023-04-16T06:39:52;9.20;;;5.30;;
79493;SDS011;68951;53.130;18.104;2023-04-16T06:42:19;9.30;;;5.50;;
79493;SDS011;68951;53.130;18.104;2023-04-16T06:44:46;8.40;;;5.40;;
79493;SDS011;68951;53.130;18.104;2023-04-16T06:47:13;8.80;;;5.50;;
79493;SDS011;68951;53.130;18.104;2023-04-16T06:49:40;8.40;;;4.80;;
79493;SDS011;68951;53.130;18.104;2023-04-16T06:52:07;10.60;;;5.60;;
79493;SDS011;68951;53.130;18.104;2023-04-16T06:54:34;9.40;;;5.40;;
79493;SDS011;68951;53.130;18.104;2023-04-16T06:57:00;11.50;;;6.20;;
79493;SDS011;68951;53.130;18.104;2023-04-16T06:59:27;10.20;;;5.80;;
79493;SDS011;68951;53.130;18.104;2023-04-16T07:01:55;10.10;;;6.60;;
79493;SDS011;68951;53.130;18.104;2023-04-16T07:04:22;10.20;;;6.00;;
79493;SDS011;68951;53.130;18.104;2023-04-16T07:06:49;9.30;;;4.70;;
79493;SDS011;68951;53.130;18.104;2023-04-16T07:09:15;9.30;;;5.20;;
79493;SDS011;68951;53.130;18.104;2023-04-16T07:11:43;9.70;;;5.40;;
79493;SDS011;68951;53.130;18.104;2023-04-16T07:14:10;9.40;;;5.10;;
79493;SDS011;68951;53.130;18.104;2023-04-16T07:16:37;8.50;;;5.20;;
79493;SDS011;68951;53.130;18.104;2023-04-16T07:19:04;10.60;;;5.70;;
79493;SDS011;68951;53.130;18.104;2023-04-16T07:21:30;9.80;;;5.80;;
79493;SDS011;68951;53.130;18.104;2023-04-16T07:23:57;13.50;;;7.60;;
79493;SDS011;68951;53.130;18.104;2023-04-16T07:26:24;9.90;;;6.60;;
79493;SDS011;68951;53.130;18.104;2023-04-16T07:28:51;12.40;;;6.60;;
79493;SDS011;68951;53.130;18.104;2023-04-16T07:31:18;9.90;;;6.20;;
79493;SDS011;68951;53.130;18.104;2023-04-16T07:33:45;12.10;;;6.90;;
79493;SDS011;68951;53.130;18.104;2023-04-16T07:36:12;10.00;;;6.00;;
79493;SDS011;68951;53.130;18.104;2023-04-16T07:38:39;10.50;;;6.70;;
79493;SDS011;68951;53.130;18.104;2023-04-16T07:41:06;10.10;;;5.70;;
79493;SDS011;68951;53.130;18.104;2023-04-16T07:43:33;10.00;;;5.70;;
79493;SDS011;68951;53.130;18.104;2023-04-16T07:46:00;10.80;;;6.10;;
79493;SDS011;68951;53.130;18.104;2023-04-16T07:48:27;12.90;;;7.10;;
79493;SDS011;68951;53.130;18.104;2023-04-16T07:50:53;11.30;;;6.60;;
79493;SDS011;68951;53.130;18.104;2023-04-16T07:53:21;9.00;;;5.50;;
79493;SDS011;68951;53.130;18.104;2023-04-16T07:55:47;8.70;;;5.30;;
79493;SDS011;68951;53.130;18.104;2023-04-16T07:58:14;9.60;;;5.30;;
79493;SDS011;68951;53.130;18.104;2023-04-16T08:00:41;7.90;;;4.90;;
79493;SDS011;68951;53.130;18.104;2023-04-16T08:03:08;8.40;;;4.70;;
79493;SDS011;68951;53.130;18.104;2023-04-16T08:05:35;6.90;;;4.30;;
79493;SDS011;68951;53.130;18.104;2023-04-16T08:08:02;7.10;;;3.70;;
79493;SDS011;68951;53.130;18.104;2023-04-16T08:10:29;7.70;;;3.80;;
79493;SDS011;68951;53.130;18.104;2023-04-16T08:12:56;6.90;;;3.60;;
79493;SDS011;68951;53.130;18.104;2023-04-16T08:15:22;7.90;;;3.70;;
79493;SDS011;68951;53.130;18.104;2023-04-16T08:17:49;6.50;;;3.40;;
79493;SDS011;68951;53.130;18.104;2023-04-16T08:20:16;7.40;;;3.70;;
79493;SDS011;68951;53.130;18.104;2023-04-16T08:22:44;9.10;;;4.30;;
79493;SDS011;68951;53.130;18.104;2023-04-16T08:25:11;8.00;;;4.10;;
79493;SDS011;68951;53.130;18.104;2023-04-16T08:27:40;7.30;;;3.80;;
79493;SDS011;68951;53.130;18.104;2023-04-16T08:30:07;6.80;;;3.20;;
79493;SDS011;68951;53.130;18.104;2023-04-16T08:32:34;7.20;;;3.50;;
79493;SDS011;68951;53.130;18.104;2023-04-16T08:35:01;7.40;;;4.20;;
79493;SDS011;68951;53.130;18.104;2023-04-16T08:37:27;7.50;;;3.20;;
79493;SDS011;68951;53.130;18.104;2023-04-16T08:39:54;13.90;;;7.90;;
79493;SDS011;68951;53.130;18.104;2023-04-16T08:42:44;14.30;;;7.80;;
79493;SDS011;68951;53.130;18.104;2023-04-16T08:45:16;13.50;;;6.90;;
79493;SDS011;68951;53.130;18.104;2023-04-16T08:47:48;13.10;;;7.20;;
79493;SDS011;68951;53.130;18.104;2023-04-16T08:50:23;9.00;;;5.50;;
79493;SDS011;68951;53.130;18.104;2023-04-16T08:52:55;11.10;;;6.20;;
79493;SDS011;68951;53.130;18.104;2023-04-16T08:55:46;9.40;;;5.00;;
79493;SDS011;68951;53.130;18.104;2023-04-16T08:58:17;8.40;;;4.10;;
79493;SDS011;68951;53.130;18.104;2023-04-16T09:00:45;8.70;;;4.20;;
79493;SDS011;68951;53.130;18.104;2023-04-16T09:03:13;10.60;;;7.10;;
79493;SDS011;68951;53.130;18.104;2023-04-16T09:05:41;11.70;;;8.40;;
79493;SDS011;68951;53.130;18.104;2023-04-16T09:08:09;10.80;;;5.80;;
79493;SDS011;68951;53.130;18.104;2023-04-16T09:10:36;9.30;;;4.50;;
79493;SDS011;68951;53.130;18.104;2023-04-16T09:13:03;9.00;;;5.40;;
79493;SDS011;68951;53.130;18.104;2023-04-16T09:15:31;8.20;;;4.00;;
79493;SDS011;68951;53.130;18.104;2023-04-16T09:18:00;9.30;;;4.40;;
79493;SDS011;68951;53.130;18.104;2023-04-16T09:20:26;8.70;;;4.20;;
79493;SDS011;68951;53.130;18.104;2023-04-16T09:22:53;7.90;;;3.80;;
79493;SDS011;68951;53.130;18.104;2023-04-16T09:25:23;8.40;;;3.90;;
79493;SDS011;68951;53.130;18.104;2023-04-16T09:27:51;9.50;;;4.40;;
79493;SDS011;68951;53.130;18.104;2023-04-16T09:30:22;8.50;;;3.90;;
79493;SDS011;68951;53.130;18.104;2023-04-16T09:32:50;9.20;;;4.60;;
79493;SDS011;68951;53.130;18.104;2023-04-16T09:35:19;9.60;;;4.70;;
79493;SDS011;68951;53.130;18.104;2023-04-16T09:37:56;12.00;;;4.90;;
79493;SDS011;68951;53.130;18.104;2023-04-16T09:40:24;8.50;;;4.60;;
79493;SDS011;68951;53.130;18.104;2023-04-16T09:42:56;8.90;;;4.20;;
79493;SDS011;68951;53.130;18.104;2023-04-16T09:45:23;10.00;;;4.70;;
79493;SDS011;68951;53.130;18.104;2023-04-16T09:47:50;9.20;;;4.70;;
79493;SDS011;68951;53.130;18.104;2023-04-16T09:50:18;10.20;;;5.60;;
79493;SDS011;68951;53.130;18.104;2023-04-16T09:52:49;10.10;;;5.60;;
79493;SDS011;68951;53.130;18.104;2023-04-16T09:55:21;14.20;;;7.20;;
79493;SDS011;68951;53.130;18.104;2023-04-16T09:57:57;13.70;;;8.90;;
79493;SDS011;68951;53.130;18.104;2023-04-16T10:00:28;13.80;;;9.20;;
79493;SDS011;68951;53.130;18.104;2023-04-16T10:03:03;14.80;;;9.40;;
79493;SDS011;68951;53.130;18.104;2023-04-16T10:05:31;13.60;;;7.90;;
79493;SDS011;68951;53.130;18.104;2023-04-16T10:08:01;14.80;;;8.10;;
79493;SDS011;68951;53.130;18.104;2023-04-16T10:10:28;24.80;;;11.20;;
79493;SDS011;68951;53.130;18.104;2023-04-16T10:12:55;12.40;;;6.60;;
79493;SDS011;68951;53.130;18.104;2023-04-16T10:15:23;12.00;;;6.70;;
79493;SDS011;68951;53.130;18.104;2023-04-16T10:17:51;12.80;;;6.10;;
79493;SDS011;68951;53.130;18.104;2023-04-16T10:20:19;10.40;;;4.90;;
79493;SDS011;68951;53.130;18.104;2023-04-16T10:22:46;8.30;;;3.90;;
79493;SDS011;68951;53.130;18.104;2023-04-16T10:25:14;8.10;;;3.40;;
79493;SDS011;68951;53.130;18.104;2023-04-16T10:27:42;8.60;;;3.80;;
79493;SDS011;68951;53.130;18.104;2023-04-16T10:30:10;7.20;;;3.10;;
79493;SDS011;68951;53.130;18.104;2023-04-16T10:32:39;7.00;;;2.90;;
79493;SDS011;68951;53.130;18.104;2023-04-16T10:35:06;7.90;;;3.20;;
79493;SDS011;68951;53.130;18.104;2023-04-16T10:37:36;7.40;;;3.60;;
79493;SDS011;68951;53.130;18.104;2023-04-16T10:40:21;10.00;;;4.10;;
79493;SDS011;68951;53.130;18.104;2023-04-16T10:42:59;9.20;;;4.90;;
79493;SDS011;68951;53.130;18.104;2023-04-16T10:45:32;9.10;;;4.10;;
79493;SDS011;68951;53.130;18.104;2023-04-16T10:48:04;11.00;;;5.60;;
79493;SDS011;68951;53.130;18.104;2023-04-16T10:50:35;12.90;;;7.50;;
79493;SDS011;68951;53.130;18.104;2023-04-16T10:53:19;13.70;;;8.20;;
79493;SDS011;68951;53.130;18.104;2023-04-16T10:56:09;16.80;;;11.20;;
79493;SDS011;68951;53.130;18.104;2023-04-16T10:58:41;12.70;;;8.70;;
79493;SDS011;68951;53.130;18.104;2023-04-16T11:01:12;13.70;;;8.40;;
79493;SDS011;68951;53.130;18.104;2023-04-16T11:03:50;13.10;;;8.60;;
79493;SDS011;68951;53.130;18.104;2023-04-16T11:06:24;12.70;;;7.00;;
79493;SDS011;68951;53.130;18.104;2023-04-16T11:08:52;13.20;;;7.60;;
79493;SDS011;68951;53.130;18.104;2023-04-16T11:11:20;11.70;;;6.50;;
79493;SDS011;68951;53.130;18.104;2023-04-16T11:13:47;10.10;;;5.30;;
79493;SDS011;68951;53.130;18.104;2023-04-16T11:16:15;12.00;;;6.00;;
79493;SDS011;68951;53.130;18.104;2023-04-16T11:18:44;10.00;;;5.30;;
79493;SDS011;68951;53.130;18.104;2023-04-16T11:21:11;12.10;;;6.40;;
79493;SDS011;68951;53.130;18.104;2023-04-16T11:23:48;12.70;;;7.70;;
79493;SDS011;68951;53.130;18.104;2023-04-16T11:26:22;11.90;;;6.60;;
79493;SDS011;68951;53.130;18.104;2023-04-16T11:28:51;13.70;;;7.00;;
79493;SDS011;68951;53.130;18.104;2023-04-16T11:31:19;10.90;;;6.10;;
79493;SDS011;68951;53.130;18.104;2023-04-16T11:33:46;10.30;;;6.10;;
79493;SDS011;68951;53.130;18.104;2023-04-16T11:36:13;12.80;;;6.50;;
79493;SDS011;68951;53.130;18.104;2023-04-16T11:38:40;12.30;;;7.70;;
79493;SDS011;68951;53.130;18.104;2023-04-16T11:41:09;12.40;;;7.00;;
79493;SDS011;68951;53.130;18.104;2023-04-16T11:43:36;9.10;;;5.30;;
79493;SDS011;68951;53.130;18.104;2023-04-16T11:46:05;9.20;;;5.70;;
79493;SDS011;68951;53.130;18.104;2023-04-16T11:48:52;10.30;;;5.60;;
79493;SDS011;68951;53.130;18.104;2023-04-16T11:51:19;10.80;;;5.80;;
79493;SDS011;68951;53.130;18.104;2023-04-16T11:53:52;10.20;;;5.80;;
79493;SDS011;68951;53.130;18.104;2023-04-16T11:59:19;10.00;;;5.80;;
79493;SDS011;68951;53.130;18.104;2023-04-16T12:01:52;9.90;;;5.10;;
79493;SDS011;68951;53.130;18.104;2023-04-16T12:04:24;11.30;;;4.90;;
79493;SDS011;68951;53.130;18.104;2023-04-16T12:07:12;11.60;;;5.70;;
79493;SDS011;68951;53.130;18.104;2023-04-16T12:09:41;11.90;;;6.80;;
79493;SDS011;68951;53.130;18.104;2023-04-16T12:12:28;11.70;;;6.70;;
79493;SDS011;68951;53.130;18.104;2023-04-16T12:14:56;14.60;;;8.00;;
79493;SDS011;68951;53.130;18.104;2023-04-16T12:17:25;14.40;;;8.20;;
79493;SDS011;68951;53.130;18.104;2023-04-16T12:19:56;14.10;;;8.50;;
79493;SDS011;68951;53.130;18.104;2023-04-16T12:22:26;14.30;;;7.60;;
79493;SDS011;68951;53.130;18.104;2023-04-16T12:25:04;15.20;;;9.30;;
79493;SDS011;68951;53.130;18.104;2023-04-16T12:27:51;14.70;;;9.10;;
79493;SDS011;68951;53.130;18.104;2023-04-16T12:30:21;14.10;;;7.80;;
79493;SDS011;68951;53.130;18.104;2023-04-16T12:32:51;12.70;;;6.80;;
79493;SDS011;68951;53.130;18.104;2023-04-16T12:35:33;10.60;;;6.20;;
79493;SDS011;68951;53.130;18.104;2023-04-16T12:37:59;14.10;;;9.30;;
79493;SDS011;68951;53.130;18.104;2023-04-16T12:40:26;13.20;;;7.90;;
79493;SDS011;68951;53.130;18.104;2023-04-16T12:42:53;8.80;;;4.90;;
79493;SDS011;68951;53.130;18.104;2023-04-16T12:45:21;10.50;;;5.00;;
79493;SDS011;68951;53.130;18.104;2023-04-16T12:47:48;10.30;;;4.90;;
79493;SDS011;68951;53.130;18.104;2023-04-16T12:50:16;8.80;;;4.20;;
79493;SDS011;68951;53.130;18.104;2023-04-16T12:52:43;10.50;;;4.40;;
79493;SDS011;68951;53.130;18.104;2023-04-16T12:55:10;10.30;;;6.00;;
79493;SDS011;68951;53.130;18.104;2023-04-16T12:57:39;10.30;;;6.30;;
79493;SDS011;68951;53.130;18.104;2023-04-16T13:00:06;12.20;;;6.70;;
79493;SDS011;68951;53.130;18.104;2023-04-16T13:02:35;11.60;;;6.30;;
79493;SDS011;68951;53.130;18.104;2023-04-16T13:05:02;12.00;;;6.60;;
79493;SDS011;68951;53.130;18.104;2023-04-16T13:07:29;12.60;;;5.90;;
79493;SDS011;68951;53.130;18.104;2023-04-16T13:09:58;10.90;;;5.80;;
79493;SDS011;68951;53.130;18.104;2023-04-16T13:12:26;10.90;;;5.40;;
79493;SDS011;68951;53.130;18.104;2023-04-16T13:14:54;11.50;;;5.30;;
79493;SDS011;68951;53.130;18.104;2023-04-16T13:17:21;9.40;;;4.90;;
79493;SDS011;68951;53.130;18.104;2023-04-16T13:19:48;10.10;;;4.90;;
79493;SDS011;68951;53.130;18.104;2023-04-16T13:22:15;11.50;;;5.20;;
79493;SDS011;68951;53.130;18.104;2023-04-16T13:24:42;13.20;;;6.20;;
79493;SDS011;68951;53.130;18.104;2023-04-16T13:27:09;10.70;;;5.20;;
79493;SDS011;68951;53.130;18.104;2023-04-16T13:29:36;9.60;;;5.40;;
79493;SDS011;68951;53.130;18.104;2023-04-16T13:32:04;7.70;;;4.30;;
79493;SDS011;68951;53.130;18.104;2023-04-16T13:34:31;7.70;;;3.80;;
79493;SDS011;68951;53.130;18.104;2023-04-16T13:36:58;10.00;;;4.90;;
79493;SDS011;68951;53.130;18.104;2023-04-16T13:39:25;8.70;;;4.40;;
79493;SDS011;68951;53.130;18.104;2023-04-16T13:41:52;11.30;;;4.50;;
79493;SDS011;68951;53.130;18.104;2023-04-16T13:44:20;11.30;;;5.00;;
79493;SDS011;68951;53.130;18.104;2023-04-16T13:46:47;10.50;;;4.90;;
79493;SDS011;68951;53.130;18.104;2023-04-16T13:49:13;10.70;;;4.70;;
79493;SDS011;68951;53.130;18.104;2023-04-16T13:51:44;12.20;;;4.40;;
79493;SDS011;68951;53.130;18.104;2023-04-16T13:54:11;9.60;;;4.40;;
79493;SDS011;68951;53.130;18.104;2023-04-16T13:56:38;9.50;;;5.30;;
79493;SDS011;68951;53.130;18.104;2023-04-16T13:59:06;10.20;;;4.70;;
79493;SDS011;68951;53.130;18.104;2023-04-16T14:01:33;9.00;;;4.70;;
79493;SDS011;68951;53.130;18.104;2023-04-16T14:04:00;9.70;;;4.80;;
79493;SDS011;68951;53.130;18.104;2023-04-16T14:06:32;9.60;;;4.50;;
79493;SDS011;68951;53.130;18.104;2023-04-16T14:08:59;9.90;;;4.20;;
79493;SDS011;68951;53.130;18.104;2023-04-16T14:11:26;10.40;;;4.60;;
79493;SDS011;68951;53.130;18.104;2023-04-16T14:13:54;9.30;;;4.30;;
79493;SDS011;68951;53.130;18.104;2023-04-16T14:16:21;8.80;;;4.10;;
79493;SDS011;68951;53.130;18.104;2023-04-16T14:18:47;8.30;;;4.00;;
79493;SDS011;68951;53.130;18.104;2023-04-16T14:21:14;6.60;;;3.30;;
79493;SDS011;68951;53.130;18.104;2023-04-16T14:23:41;5.50;;;2.40;;
79493;SDS011;68951;53.130;18.104;2023-04-16T14:26:08;6.90;;;2.90;;
79493;SDS011;68951;53.130;18.104;2023-04-16T14:28:35;5.60;;;2.90;;
79493;SDS011;68951;53.130;18.104;2023-04-16T14:31:02;5.00;;;1.90;;
79493;SDS011;68951;53.130;18.104;2023-04-16T14:33:29;5.30;;;2.80;;
79493;SDS011;68951;53.130;18.104;2023-04-16T14:35:56;5.20;;;2.60;;
79493;SDS011;68951;53.130;18.104;2023-04-16T14:38:23;5.40;;;2.20;;
79493;SDS011;68951;53.130;18.104;2023-04-16T14:40:50;4.90;;;2.20;;